sensor_id;sensor_type;location;lat;lon;timestamp;P1;durP1;ratioP1;P2;durP2;ratioP2
65982;SDS011;52740;40.620;-8.640;2022-08-19T00:01:16;20.88;;;7.25;;
65982;SDS011;52740;40.620;-8.640;2022-08-19T00:03:17;17.30;;;5.28;;
65982;SDS011;52740;40.620;-8.640;2022-08-19T00:05:17;22.83;;;4.60;;
65982;SDS011;52740;40.620;-8.640;2022-08-19T00:07:20;34.95;;;5.85;;
65982;SDS011;52740;40.620;-8.640;2022-08-19T00:09:21;26.02;;;6.15;;
65982;SDS011;52740;40.620;-8.640;2022-08-19T00:11:23;32.08;;;6.82;;
65982;SDS011;52740;40.620;-8.640;2022-08-19T00:13:26;19.15;;;5.72;;
65982;SDS011;52740;40.620;-8.640;2022-08-19T00:15:28;23.73;;;6.25;;
65982;SDS011;52740;40.620;-8.640;2022-08-19T00:17:29;24.58;;;6.78;;
65982;SDS011;52740;40.620;-8.640;2022-08-19T00:19:30;11.77;;;5.43;;
65982;SDS011;52740;40.620;-8.640;2022-08-19T00:21:31;17.15;;;5.40;;
65982;SDS011;52740;40.620;-8.640;2022-08-19T00:23:31;23.80;;;6.15;;
65982;SDS011;52740;40.620;-8.640;2022-08-19T00:25:34;15.57;;;5.85;;
65982;SDS011;52740;40.620;-8.640;2022-08-19T00:27:36;18.70;;;6.47;;
65982;SDS011;52740;40.620;-8.640;2022-08-19T00:29:37;23.75;;;6.60;;
65982;SDS011;52740;40.620;-8.640;2022-08-19T00:31:39;25.73;;;5.63;;
65982;SDS011;52740;40.620;-8.640;2022-08-19T00:33:41;23.73;;;6.05;;
65982;SDS011;52740;40.620;-8.640;2022-08-19T00:35:43;23.48;;;5.85;;
65982;SDS011;52740;40.620;-8.640;2022-08-19T00:37:43;24.35;;;5.22;;
65982;SDS011;52740;40.620;-8.640;2022-08-19T00:39:44;16.98;;;5.28;;
65982;SDS011;52740;40.620;-8.640;2022-08-19T00:41:46;15.55;;;4.60;;
65982;SDS011;52740;40.620;-8.640;2022-08-19T00:43:59;22.13;;;6.25;;
65982;SDS011;52740;40.620;-8.640;2022-08-19T00:46:07;24.45;;;6.32;;
65982;SDS011;52740;40.620;-8.640;2022-08-19T00:48:08;15.02;;;4.57;;
65982;SDS011;52740;40.620;-8.640;2022-08-19T00:50:10;14.23;;;5.68;;
65982;SDS011;52740;40.620;-8.640;2022-08-19T00:52:14;18.37;;;5.30;;
65982;SDS011;52740;40.620;-8.640;2022-08-19T00:54:16;15.85;;;5.95;;
65982;SDS011;52740;40.620;-8.640;2022-08-19T00:56:18;14.98;;;5.75;;
65982;SDS011;52740;40.620;-8.640;2022-08-19T00:58:20;41.15;;;5.78;;
65982;SDS011;52740;40.620;-8.640;2022-08-19T01:00:22;11.63;;;5.80;;
65982;SDS011;52740;40.620;-8.640;2022-08-19T01:02:24;23.42;;;5.72;;
65982;SDS011;52740;40.620;-8.640;2022-08-19T01:04:26;19.48;;;4.95;;
65982;SDS011;52740;40.620;-8.640;2022-08-19T01:06:27;17.65;;;4.72;;
65982;SDS011;52740;40.620;-8.640;2022-08-19T01:08:28;21.75;;;7.20;;
65982;SDS011;52740;40.620;-8.640;2022-08-19T01:10:29;16.73;;;6.35;;
65982;SDS011;52740;40.620;-8.640;2022-08-19T01:12:32;27.50;;;6.35;;
65982;SDS011;52740;40.620;-8.640;2022-08-19T01:14:34;28.13;;;6.80;;
65982;SDS011;52740;40.620;-8.640;2022-08-19T01:16:39;31.38;;;6.18;;
65982;SDS011;52740;40.620;-8.640;2022-08-19T01:18:41;18.48;;;6.03;;
65982;SDS011;52740;40.620;-8.640;2022-08-19T01:20:43;32.65;;;5.95;;
65982;SDS011;52740;40.620;-8.640;2022-08-19T01:22:46;31.20;;;6.15;;
65982;SDS011;52740;40.620;-8.640;2022-08-19T01:26:50;25.83;;;5.50;;
65982;SDS011;52740;40.620;-8.640;2022-08-19T01:28:55;15.73;;;5.45;;
65982;SDS011;52740;40.620;-8.640;2022-08-19T01:30:57;21.08;;;5.95;;
65982;SDS011;52740;40.620;-8.640;2022-08-19T01:32:58;17.70;;;5.72;;
65982;SDS011;52740;40.620;-8.640;2022-08-19T01:35:01;22.67;;;6.55;;
65982;SDS011;52740;40.620;-8.640;2022-08-19T01:37:07;15.88;;;5.28;;
65982;SDS011;52740;40.620;-8.640;2022-08-19T01:39:12;14.07;;;5.68;;
65982;SDS011;52740;40.620;-8.640;2022-08-19T01:41:15;28.60;;;8.20;;
65982;SDS011;52740;40.620;-8.640;2022-08-19T01:43:18;24.50;;;9.13;;
65982;SDS011;52740;40.620;-8.640;2022-08-19T01:45:21;25.77;;;10.43;;
65982;SDS011;52740;40.620;-8.640;2022-08-19T01:47:22;17.77;;;6.60;;
65982;SDS011;52740;40.620;-8.640;2022-08-19T01:49:23;27.10;;;7.32;;
65982;SDS011;52740;40.620;-8.640;2022-08-19T01:51:26;13.80;;;5.50;;
65982;SDS011;52740;40.620;-8.640;2022-08-19T01:53:27;12.95;;;5.45;;
65982;SDS011;52740;40.620;-8.640;2022-08-19T01:55:28;20.08;;;6.60;;
65982;SDS011;52740;40.620;-8.640;2022-08-19T01:57:29;26.02;;;5.68;;
65982;SDS011;52740;40.620;-8.640;2022-08-19T01:59:30;11.73;;;4.35;;
65982;SDS011;52740;40.620;-8.640;2022-08-19T02:01:32;15.20;;;5.03;;
65982;SDS011;52740;40.620;-8.640;2022-08-19T02:03:34;29.20;;;5.93;;
65982;SDS011;52740;40.620;-8.640;2022-08-19T02:05:35;17.15;;;5.55;;
65982;SDS011;52740;40.620;-8.640;2022-08-19T02:07:37;21.73;;;5.93;;
65982;SDS011;52740;40.620;-8.640;2022-08-19T02:09:39;17.42;;;5.13;;
65982;SDS011;52740;40.620;-8.640;2022-08-19T02:11:39;14.48;;;5.80;;
65982;SDS011;52740;40.620;-8.640;2022-08-19T02:13:41;12.80;;;4.68;;
65982;SDS011;52740;40.620;-8.640;2022-08-19T02:15:43;17.20;;;5.43;;
65982;SDS011;52740;40.620;-8.640;2022-08-19T02:17:44;12.60;;;5.80;;
65982;SDS011;52740;40.620;-8.640;2022-08-19T02:19:44;21.83;;;6.07;;
65982;SDS011;52740;40.620;-8.640;2022-08-19T02:21:45;23.65;;;6.32;;
65982;SDS011;52740;40.620;-8.640;2022-08-19T02:23:46;23.35;;;5.65;;
65982;SDS011;52740;40.620;-8.640;2022-08-19T02:25:48;20.48;;;5.68;;
65982;SDS011;52740;40.620;-8.640;2022-08-19T02:27:49;10.43;;;4.70;;
65982;SDS011;52740;40.620;-8.640;2022-08-19T02:29:50;20.77;;;4.88;;
65982;SDS011;52740;40.620;-8.640;2022-08-19T02:31:51;19.73;;;5.38;;
65982;SDS011;52740;40.620;-8.640;2022-08-19T02:33:52;26.30;;;7.20;;
65982;SDS011;52740;40.620;-8.640;2022-08-19T02:35:53;18.77;;;5.93;;
65982;SDS011;52740;40.620;-8.640;2022-08-19T02:37:54;22.23;;;6.05;;
65982;SDS011;52740;40.620;-8.640;2022-08-19T02:40:13;24.58;;;5.70;;
65982;SDS011;52740;40.620;-8.640;2022-08-19T02:42:15;25.85;;;6.30;;
65982;SDS011;52740;40.620;-8.640;2022-08-19T02:44:16;26.95;;;6.63;;
65982;SDS011;52740;40.620;-8.640;2022-08-19T02:46:24;25.48;;;6.15;;
65982;SDS011;52740;40.620;-8.640;2022-08-19T02:48:27;21.48;;;6.53;;
65982;SDS011;52740;40.620;-8.640;2022-08-19T02:50:27;14.52;;;5.18;;
65982;SDS011;52740;40.620;-8.640;2022-08-19T02:52:28;27.30;;;5.50;;
65982;SDS011;52740;40.620;-8.640;2022-08-19T02:54:29;19.33;;;6.10;;
65982;SDS011;52740;40.620;-8.640;2022-08-19T02:56:30;20.00;;;6.38;;
65982;SDS011;52740;40.620;-8.640;2022-08-19T02:58:31;24.38;;;6.07;;
65982;SDS011;52740;40.620;-8.640;2022-08-19T03:00:32;17.42;;;6.53;;
65982;SDS011;52740;40.620;-8.640;2022-08-19T03:02:33;13.45;;;5.10;;
65982;SDS011;52740;40.620;-8.640;2022-08-19T03:04:34;16.27;;;6.13;;
65982;SDS011;52740;40.620;-8.640;2022-08-19T03:06:38;24.90;;;6.82;;
65982;SDS011;52740;40.620;-8.640;2022-08-19T03:08:42;16.02;;;4.95;;
65982;SDS011;52740;40.620;-8.640;2022-08-19T03:10:45;14.95;;;5.55;;
65982;SDS011;52740;40.620;-8.640;2022-08-19T03:12:47;25.25;;;7.13;;
65982;SDS011;52740;40.620;-8.640;2022-08-19T03:14:47;23.20;;;5.53;;
65982;SDS011;52740;40.620;-8.640;2022-08-19T03:16:49;19.42;;;6.18;;
65982;SDS011;52740;40.620;-8.640;2022-08-19T03:18:51;17.27;;;6.15;;
65982;SDS011;52740;40.620;-8.640;2022-08-19T03:20:53;19.88;;;6.93;;
65982;SDS011;52740;40.620;-8.640;2022-08-19T03:22:54;17.67;;;5.57;;
65982;SDS011;52740;40.620;-8.640;2022-08-19T03:24:55;24.75;;;6.25;;
65982;SDS011;52740;40.620;-8.640;2022-08-19T03:26:56;21.70;;;6.78;;
65982;SDS011;52740;40.620;-8.640;2022-08-19T03:29:01;23.38;;;6.20;;
65982;SDS011;52740;40.620;-8.640;2022-08-19T03:31:04;22.50;;;7.55;;
65982;SDS011;52740;40.620;-8.640;2022-08-19T03:33:08;14.55;;;5.13;;
65982;SDS011;52740;40.620;-8.640;2022-08-19T03:35:10;30.08;;;7.05;;
65982;SDS011;52740;40.620;-8.640;2022-08-19T03:37:11;17.98;;;5.68;;
65982;SDS011;52740;40.620;-8.640;2022-08-19T03:39:12;27.73;;;6.88;;
65982;SDS011;52740;40.620;-8.640;2022-08-19T03:41:15;23.08;;;7.32;;
65982;SDS011;52740;40.620;-8.640;2022-08-19T03:43:20;14.73;;;5.72;;
65982;SDS011;52740;40.620;-8.640;2022-08-19T03:45:21;30.63;;;7.63;;
65982;SDS011;52740;40.620;-8.640;2022-08-19T03:47:21;15.23;;;5.57;;
65982;SDS011;52740;40.620;-8.640;2022-08-19T03:49:23;16.63;;;6.88;;
65982;SDS011;52740;40.620;-8.640;2022-08-19T03:51:27;23.75;;;6.95;;
65982;SDS011;52740;40.620;-8.640;2022-08-19T03:53:31;19.75;;;8.02;;
65982;SDS011;52740;40.620;-8.640;2022-08-19T03:55:33;25.80;;;7.32;;
65982;SDS011;52740;40.620;-8.640;2022-08-19T03:57:34;25.77;;;7.38;;
65982;SDS011;52740;40.620;-8.640;2022-08-19T03:59:35;25.58;;;7.20;;
65982;SDS011;52740;40.620;-8.640;2022-08-19T04:01:37;22.02;;;6.78;;
65982;SDS011;52740;40.620;-8.640;2022-08-19T04:03:38;12.57;;;5.95;;
65982;SDS011;52740;40.620;-8.640;2022-08-19T04:05:39;12.85;;;5.50;;
65982;SDS011;52740;40.620;-8.640;2022-08-19T04:07:40;20.02;;;6.88;;
65982;SDS011;52740;40.620;-8.640;2022-08-19T04:09:41;26.67;;;7.93;;
65982;SDS011;52740;40.620;-8.640;2022-08-19T04:11:46;23.52;;;7.53;;
65982;SDS011;52740;40.620;-8.640;2022-08-19T04:13:49;22.02;;;8.02;;
65982;SDS011;52740;40.620;-8.640;2022-08-19T04:15:51;21.60;;;7.72;;
65982;SDS011;52740;40.620;-8.640;2022-08-19T04:17:52;23.88;;;9.02;;
65982;SDS011;52740;40.620;-8.640;2022-08-19T04:19:53;16.92;;;7.22;;
65982;SDS011;52740;40.620;-8.640;2022-08-19T04:21:54;17.92;;;7.53;;
65982;SDS011;52740;40.620;-8.640;2022-08-19T04:23:55;18.35;;;7.50;;
65982;SDS011;52740;40.620;-8.640;2022-08-19T04:25:57;24.00;;;7.32;;
65982;SDS011;52740;40.620;-8.640;2022-08-19T04:27:57;27.83;;;7.22;;
65982;SDS011;52740;40.620;-8.640;2022-08-19T04:29:58;18.70;;;7.18;;
65982;SDS011;52740;40.620;-8.640;2022-08-19T04:31:59;19.73;;;6.63;;
65982;SDS011;52740;40.620;-8.640;2022-08-19T04:34:00;17.67;;;6.93;;
65982;SDS011;52740;40.620;-8.640;2022-08-19T04:36:02;13.82;;;6.70;;
65982;SDS011;52740;40.620;-8.640;2022-08-19T04:38:03;20.27;;;6.45;;
65982;SDS011;52740;40.620;-8.640;2022-08-19T04:40:04;15.77;;;6.35;;
65982;SDS011;52740;40.620;-8.640;2022-08-19T04:42:25;19.85;;;7.43;;
65982;SDS011;52740;40.620;-8.640;2022-08-19T04:44:41;25.48;;;6.65;;
65982;SDS011;52740;40.620;-8.640;2022-08-19T04:46:42;16.23;;;6.72;;
65982;SDS011;52740;40.620;-8.640;2022-08-19T04:48:42;24.15;;;6.93;;
65982;SDS011;52740;40.620;-8.640;2022-08-19T04:50:43;25.13;;;6.70;;
65982;SDS011;52740;40.620;-8.640;2022-08-19T04:52:44;19.58;;;6.53;;
65982;SDS011;52740;40.620;-8.640;2022-08-19T04:54:45;24.95;;;7.07;;
65982;SDS011;52740;40.620;-8.640;2022-08-19T04:56:46;31.45;;;7.63;;
65982;SDS011;52740;40.620;-8.640;2022-08-19T04:58:49;14.88;;;6.68;;
65982;SDS011;52740;40.620;-8.640;2022-08-19T05:00:51;19.73;;;6.50;;
65982;SDS011;52740;40.620;-8.640;2022-08-19T05:02:52;20.25;;;6.00;;
65982;SDS011;52740;40.620;-8.640;2022-08-19T05:04:56;22.70;;;7.03;;
65982;SDS011;52740;40.620;-8.640;2022-08-19T05:06:59;19.17;;;6.55;;
65982;SDS011;52740;40.620;-8.640;2022-08-19T05:11:09;19.63;;;6.22;;
65982;SDS011;52740;40.620;-8.640;2022-08-19T05:13:20;27.13;;;7.07;;
65982;SDS011;52740;40.620;-8.640;2022-08-19T05:15:21;20.00;;;6.35;;
65982;SDS011;52740;40.620;-8.640;2022-08-19T05:17:22;22.67;;;6.78;;
65982;SDS011;52740;40.620;-8.640;2022-08-19T05:19:23;27.85;;;6.68;;
65982;SDS011;52740;40.620;-8.640;2022-08-19T05:21:42;25.65;;;7.32;;
65982;SDS011;52740;40.620;-8.640;2022-08-19T05:24:02;18.00;;;6.38;;
65982;SDS011;52740;40.620;-8.640;2022-08-19T05:26:08;17.75;;;5.82;;
65982;SDS011;52740;40.620;-8.640;2022-08-19T05:28:11;17.88;;;6.82;;
65982;SDS011;52740;40.620;-8.640;2022-08-19T05:30:11;28.40;;;7.05;;
65982;SDS011;52740;40.620;-8.640;2022-08-19T05:32:12;18.48;;;6.53;;
65982;SDS011;52740;40.620;-8.640;2022-08-19T05:34:13;25.98;;;7.25;;
65982;SDS011;52740;40.620;-8.640;2022-08-19T05:36:14;24.15;;;7.57;;
65982;SDS011;52740;40.620;-8.640;2022-08-19T05:38:16;18.02;;;6.68;;
65982;SDS011;52740;40.620;-8.640;2022-08-19T05:40:18;17.63;;;7.20;;
65982;SDS011;52740;40.620;-8.640;2022-08-19T05:42:18;14.68;;;6.22;;
65982;SDS011;52740;40.620;-8.640;2022-08-19T05:44:20;17.88;;;6.13;;
65982;SDS011;52740;40.620;-8.640;2022-08-19T05:46:22;18.50;;;6.07;;
65982;SDS011;52740;40.620;-8.640;2022-08-19T05:48:23;16.55;;;6.43;;
65982;SDS011;52740;40.620;-8.640;2022-08-19T05:50:24;20.13;;;7.07;;
65982;SDS011;52740;40.620;-8.640;2022-08-19T05:52:26;19.55;;;6.53;;
65982;SDS011;52740;40.620;-8.640;2022-08-19T05:54:28;19.15;;;6.32;;
65982;SDS011;52740;40.620;-8.640;2022-08-19T05:56:28;22.83;;;7.03;;
65982;SDS011;52740;40.620;-8.640;2022-08-19T05:58:30;23.35;;;6.97;;
65982;SDS011;52740;40.620;-8.640;2022-08-19T06:00:33;18.67;;;7.03;;
65982;SDS011;52740;40.620;-8.640;2022-08-19T06:02:35;25.42;;;6.90;;
65982;SDS011;52740;40.620;-8.640;2022-08-19T06:04:36;17.00;;;5.68;;
65982;SDS011;52740;40.620;-8.640;2022-08-19T06:06:37;17.88;;;7.15;;
65982;SDS011;52740;40.620;-8.640;2022-08-19T06:08:38;22.30;;;6.50;;
65982;SDS011;52740;40.620;-8.640;2022-08-19T06:10:40;20.48;;;7.30;;
65982;SDS011;52740;40.620;-8.640;2022-08-19T06:12:41;27.38;;;6.65;;
65982;SDS011;52740;40.620;-8.640;2022-08-19T06:14:41;19.98;;;6.68;;
65982;SDS011;52740;40.620;-8.640;2022-08-19T06:16:42;14.43;;;5.70;;
65982;SDS011;52740;40.620;-8.640;2022-08-19T06:18:43;21.05;;;7.35;;
65982;SDS011;52740;40.620;-8.640;2022-08-19T06:20:44;14.48;;;6.35;;
65982;SDS011;52740;40.620;-8.640;2022-08-19T06:22:45;16.95;;;5.97;;
65982;SDS011;52740;40.620;-8.640;2022-08-19T06:24:49;14.57;;;6.38;;
65982;SDS011;52740;40.620;-8.640;2022-08-19T06:26:53;28.05;;;8.02;;
65982;SDS011;52740;40.620;-8.640;2022-08-19T06:28:55;28.13;;;7.05;;
65982;SDS011;52740;40.620;-8.640;2022-08-19T06:30:55;18.75;;;5.85;;
65982;SDS011;52740;40.620;-8.640;2022-08-19T06:32:56;20.65;;;6.78;;
65982;SDS011;52740;40.620;-8.640;2022-08-19T06:34:57;17.00;;;5.88;;
65982;SDS011;52740;40.620;-8.640;2022-08-19T06:36:58;20.38;;;6.65;;
65982;SDS011;52740;40.620;-8.640;2022-08-19T06:39:03;15.70;;;6.20;;
65982;SDS011;52740;40.620;-8.640;2022-08-19T06:41:05;23.38;;;6.28;;
65982;SDS011;52740;40.620;-8.640;2022-08-19T06:43:06;21.13;;;6.25;;
65982;SDS011;52740;40.620;-8.640;2022-08-19T06:45:07;16.92;;;6.57;;
65982;SDS011;52740;40.620;-8.640;2022-08-19T06:47:09;29.55;;;7.10;;
65982;SDS011;52740;40.620;-8.640;2022-08-19T06:49:12;18.83;;;6.75;;
65982;SDS011;52740;40.620;-8.640;2022-08-19T06:51:15;23.58;;;6.78;;
65982;SDS011;52740;40.620;-8.640;2022-08-19T06:53:21;17.30;;;6.40;;
65982;SDS011;52740;40.620;-8.640;2022-08-19T06:55:21;22.92;;;6.97;;
65982;SDS011;52740;40.620;-8.640;2022-08-19T06:57:23;28.23;;;7.30;;
65982;SDS011;52740;40.620;-8.640;2022-08-19T06:59:24;20.13;;;6.05;;
65982;SDS011;52740;40.620;-8.640;2022-08-19T07:01:28;28.05;;;7.38;;
65982;SDS011;52740;40.620;-8.640;2022-08-19T07:03:29;22.27;;;8.32;;
65982;SDS011;52740;40.620;-8.640;2022-08-19T07:05:32;22.63;;;8.30;;
65982;SDS011;52740;40.620;-8.640;2022-08-19T07:07:32;18.00;;;7.90;;
65982;SDS011;52740;40.620;-8.640;2022-08-19T07:09:38;17.85;;;7.72;;
65982;SDS011;52740;40.620;-8.640;2022-08-19T07:11:47;16.23;;;6.95;;
65982;SDS011;52740;40.620;-8.640;2022-08-19T07:13:50;26.73;;;6.88;;
65982;SDS011;52740;40.620;-8.640;2022-08-19T07:15:51;14.18;;;6.00;;
65982;SDS011;52740;40.620;-8.640;2022-08-19T07:17:52;17.95;;;6.75;;
65982;SDS011;52740;40.620;-8.640;2022-08-19T07:19:53;14.40;;;5.32;;
65982;SDS011;52740;40.620;-8.640;2022-08-19T07:21:55;16.83;;;6.30;;
65982;SDS011;52740;40.620;-8.640;2022-08-19T07:23:56;11.95;;;5.68;;
65982;SDS011;52740;40.620;-8.640;2022-08-19T07:26:04;12.90;;;5.53;;
65982;SDS011;52740;40.620;-8.640;2022-08-19T07:28:06;11.52;;;6.18;;
65982;SDS011;52740;40.620;-8.640;2022-08-19T07:30:10;12.40;;;6.65;;
65982;SDS011;52740;40.620;-8.640;2022-08-19T07:32:12;11.45;;;6.35;;
65982;SDS011;52740;40.620;-8.640;2022-08-19T07:34:12;10.10;;;5.57;;
65982;SDS011;52740;40.620;-8.640;2022-08-19T07:36:16;18.10;;;6.28;;
65982;SDS011;52740;40.620;-8.640;2022-08-19T07:38:19;15.43;;;6.55;;
65982;SDS011;52740;40.620;-8.640;2022-08-19T07:40:20;13.65;;;6.90;;
65982;SDS011;52740;40.620;-8.640;2022-08-19T07:42:20;15.50;;;6.30;;
65982;SDS011;52740;40.620;-8.640;2022-08-19T07:44:21;16.67;;;7.43;;
65982;SDS011;52740;40.620;-8.640;2022-08-19T07:46:23;14.38;;;6.32;;
65982;SDS011;52740;40.620;-8.640;2022-08-19T07:48:24;10.50;;;6.32;;
65982;SDS011;52740;40.620;-8.640;2022-08-19T07:50:27;12.75;;;6.35;;
65982;SDS011;52740;40.620;-8.640;2022-08-19T07:52:27;10.57;;;6.43;;
65982;SDS011;52740;40.620;-8.640;2022-08-19T07:54:30;13.80;;;6.47;;
65982;SDS011;52740;40.620;-8.640;2022-08-19T07:56:34;10.98;;;6.80;;
65982;SDS011;52740;40.620;-8.640;2022-08-19T07:58:36;9.13;;;6.07;;
65982;SDS011;52740;40.620;-8.640;2022-08-19T08:00:38;10.43;;;6.38;;
65982;SDS011;52740;40.620;-8.640;2022-08-19T08:02:39;11.55;;;6.60;;
65982;SDS011;52740;40.620;-8.640;2022-08-19T08:04:42;9.35;;;6.30;;
65982;SDS011;52740;40.620;-8.640;2022-08-19T08:07:01;14.95;;;7.13;;
65982;SDS011;52740;40.620;-8.640;2022-08-19T08:09:23;21.05;;;7.20;;
65982;SDS011;52740;40.620;-8.640;2022-08-19T08:11:26;13.15;;;7.40;;
65982;SDS011;52740;40.620;-8.640;2022-08-19T08:13:27;24.17;;;7.45;;
65982;SDS011;52740;40.620;-8.640;2022-08-19T08:15:28;12.27;;;7.25;;
65982;SDS011;52740;40.620;-8.640;2022-08-19T08:17:29;14.63;;;7.13;;
65982;SDS011;52740;40.620;-8.640;2022-08-19T08:19:31;14.98;;;7.47;;
65982;SDS011;52740;40.620;-8.640;2022-08-19T08:21:32;13.90;;;8.15;;
65982;SDS011;52740;40.620;-8.640;2022-08-19T08:23:34;12.20;;;7.20;;
65982;SDS011;52740;40.620;-8.640;2022-08-19T08:25:35;15.32;;;7.50;;
65982;SDS011;52740;40.620;-8.640;2022-08-19T08:27:41;10.55;;;6.65;;
65982;SDS011;52740;40.620;-8.640;2022-08-19T08:29:43;14.73;;;6.88;;
65982;SDS011;52740;40.620;-8.640;2022-08-19T08:31:44;12.35;;;7.18;;
65982;SDS011;52740;40.620;-8.640;2022-08-19T08:33:46;10.40;;;7.10;;
65982;SDS011;52740;40.620;-8.640;2022-08-19T08:35:47;12.85;;;7.35;;
65982;SDS011;52740;40.620;-8.640;2022-08-19T08:37:48;11.38;;;6.55;;
65982;SDS011;52740;40.620;-8.640;2022-08-19T08:39:51;10.68;;;7.15;;
65982;SDS011;52740;40.620;-8.640;2022-08-19T08:41:58;11.88;;;7.50;;
65982;SDS011;52740;40.620;-8.640;2022-08-19T08:44:16;14.35;;;7.78;;
65982;SDS011;52740;40.620;-8.640;2022-08-19T08:46:37;16.42;;;8.68;;
65982;SDS011;52740;40.620;-8.640;2022-08-19T08:48:44;9.75;;;7.63;;
65982;SDS011;52740;40.620;-8.640;2022-08-19T08:50:53;13.02;;;8.13;;
65982;SDS011;52740;40.620;-8.640;2022-08-19T08:52:56;16.10;;;7.82;;
65982;SDS011;52740;40.620;-8.640;2022-08-19T08:54:58;15.60;;;8.32;;
65982;SDS011;52740;40.620;-8.640;2022-08-19T08:57:04;15.50;;;8.32;;
65982;SDS011;52740;40.620;-8.640;2022-08-19T08:59:18;12.40;;;7.68;;
65982;SDS011;52740;40.620;-8.640;2022-08-19T09:01:19;15.23;;;8.40;;
65982;SDS011;52740;40.620;-8.640;2022-08-19T09:03:21;17.05;;;8.52;;
65982;SDS011;52740;40.620;-8.640;2022-08-19T09:05:26;16.73;;;8.30;;
65982;SDS011;52740;40.620;-8.640;2022-08-19T09:10:02;22.58;;;8.55;;
65982;SDS011;52740;40.620;-8.640;2022-08-19T09:17:15;14.10;;;8.75;;
65982;SDS011;52740;40.620;-8.640;2022-08-19T09:19:16;12.73;;;8.32;;
65982;SDS011;52740;40.620;-8.640;2022-08-19T09:21:18;18.08;;;7.75;;
65982;SDS011;52740;40.620;-8.640;2022-08-19T09:23:20;15.70;;;7.85;;
65982;SDS011;52740;40.620;-8.640;2022-08-19T09:25:24;15.48;;;8.38;;
65982;SDS011;52740;40.620;-8.640;2022-08-19T09:27:26;19.80;;;8.48;;
65982;SDS011;52740;40.620;-8.640;2022-08-19T09:29:27;14.43;;;8.00;;
65982;SDS011;52740;40.620;-8.640;2022-08-19T09:31:29;26.50;;;8.25;;
65982;SDS011;52740;40.620;-8.640;2022-08-19T09:33:32;16.45;;;8.25;;
65982;SDS011;52740;40.620;-8.640;2022-08-19T09:35:33;20.67;;;9.07;;
65982;SDS011;52740;40.620;-8.640;2022-08-19T09:37:35;19.37;;;8.50;;
65982;SDS011;52740;40.620;-8.640;2022-08-19T09:39:37;20.25;;;7.90;;
65982;SDS011;52740;40.620;-8.640;2022-08-19T09:41:38;17.75;;;8.20;;
65982;SDS011;52740;40.620;-8.640;2022-08-19T09:43:39;19.63;;;8.48;;
65982;SDS011;52740;40.620;-8.640;2022-08-19T09:45:43;18.20;;;8.07;;
65982;SDS011;52740;40.620;-8.640;2022-08-19T09:47:43;17.25;;;8.10;;
65982;SDS011;52740;40.620;-8.640;2022-08-19T09:49:44;20.50;;;8.63;;
65982;SDS011;52740;40.620;-8.640;2022-08-19T09:51:45;16.38;;;7.78;;
65982;SDS011;52740;40.620;-8.640;2022-08-19T09:53:50;16.77;;;8.93;;
65982;SDS011;52740;40.620;-8.640;2022-08-19T09:55:52;25.88;;;8.38;;
65982;SDS011;52740;40.620;-8.640;2022-08-19T09:57:55;16.90;;;8.20;;
65982;SDS011;52740;40.620;-8.640;2022-08-19T09:59:56;20.73;;;8.05;;
65982;SDS011;52740;40.620;-8.640;2022-08-19T10:01:56;14.60;;;8.05;;
65982;SDS011;52740;40.620;-8.640;2022-08-19T10:03:58;15.25;;;8.38;;
65982;SDS011;52740;40.620;-8.640;2022-08-19T10:06:01;18.92;;;9.18;;
65982;SDS011;52740;40.620;-8.640;2022-08-19T10:08:04;17.95;;;9.23;;
65982;SDS011;52740;40.620;-8.640;2022-08-19T10:10:05;11.52;;;7.95;;
65982;SDS011;52740;40.620;-8.640;2022-08-19T10:12:07;12.98;;;8.48;;
65982;SDS011;52740;40.620;-8.640;2022-08-19T10:14:08;13.63;;;8.15;;
65982;SDS011;52740;40.620;-8.640;2022-08-19T10:16:19;14.80;;;8.15;;
65982;SDS011;52740;40.620;-8.640;2022-08-19T10:18:23;19.17;;;8.38;;
65982;SDS011;52740;40.620;-8.640;2022-08-19T10:20:25;17.63;;;8.68;;
65982;SDS011;52740;40.620;-8.640;2022-08-19T10:22:26;16.50;;;8.75;;
65982;SDS011;52740;40.620;-8.640;2022-08-19T10:24:27;17.08;;;8.43;;
65982;SDS011;52740;40.620;-8.640;2022-08-19T10:26:29;17.35;;;8.40;;
65982;SDS011;52740;40.620;-8.640;2022-08-19T10:28:35;13.55;;;8.15;;
65982;SDS011;52740;40.620;-8.640;2022-08-19T10:30:40;17.70;;;9.52;;
65982;SDS011;52740;40.620;-8.640;2022-08-19T10:32:42;15.68;;;9.65;;
65982;SDS011;52740;40.620;-8.640;2022-08-19T10:34:42;11.98;;;9.73;;
65982;SDS011;52740;40.620;-8.640;2022-08-19T10:36:43;13.02;;;9.32;;
65982;SDS011;52740;40.620;-8.640;2022-08-19T10:38:45;13.88;;;9.35;;
65982;SDS011;52740;40.620;-8.640;2022-08-19T10:40:47;13.60;;;8.85;;
65982;SDS011;52740;40.620;-8.640;2022-08-19T10:42:47;11.02;;;7.97;;
65982;SDS011;52740;40.620;-8.640;2022-08-19T10:44:48;10.50;;;6.95;;
65982;SDS011;52740;40.620;-8.640;2022-08-19T10:46:50;20.52;;;11.18;;
65982;SDS011;52740;40.620;-8.640;2022-08-19T10:48:52;10.98;;;8.13;;
65982;SDS011;52740;40.620;-8.640;2022-08-19T10:53:51;10.20;;;8.10;;
65982;SDS011;52740;40.620;-8.640;2022-08-19T10:55:52;11.05;;;7.20;;
65982;SDS011;52740;40.620;-8.640;2022-08-19T10:58:12;9.88;;;7.18;;
65982;SDS011;52740;40.620;-8.640;2022-08-19T11:00:14;9.90;;;8.55;;
65982;SDS011;52740;40.620;-8.640;2022-08-19T11:02:15;9.77;;;7.30;;
65982;SDS011;52740;40.620;-8.640;2022-08-19T11:04:17;11.40;;;7.25;;
65982;SDS011;52740;40.620;-8.640;2022-08-19T11:06:19;11.02;;;7.10;;
65982;SDS011;52740;40.620;-8.640;2022-08-19T11:08:20;12.38;;;6.18;;
65982;SDS011;52740;40.620;-8.640;2022-08-19T11:10:21;9.68;;;6.45;;
65982;SDS011;52740;40.620;-8.640;2022-08-19T11:12:23;6.20;;;5.68;;
65982;SDS011;52740;40.620;-8.640;2022-08-19T11:14:24;13.32;;;7.45;;
65982;SDS011;52740;40.620;-8.640;2022-08-19T11:16:26;7.90;;;6.35;;
65982;SDS011;52740;40.620;-8.640;2022-08-19T11:18:27;6.82;;;6.03;;
65982;SDS011;52740;40.620;-8.640;2022-08-19T11:20:28;14.07;;;6.15;;
65982;SDS011;52740;40.620;-8.640;2022-08-19T11:22:31;7.20;;;5.55;;
65982;SDS011;52740;40.620;-8.640;2022-08-19T11:24:32;7.38;;;5.35;;
65982;SDS011;52740;40.620;-8.640;2022-08-19T11:26:33;7.57;;;5.95;;
65982;SDS011;52740;40.620;-8.640;2022-08-19T11:28:35;6.22;;;5.63;;
65982;SDS011;52740;40.620;-8.640;2022-08-19T11:30:36;8.70;;;6.13;;
65982;SDS011;52740;40.620;-8.640;2022-08-19T11:32:38;5.88;;;5.45;;
65982;SDS011;52740;40.620;-8.640;2022-08-19T11:34:40;8.77;;;6.22;;
65982;SDS011;52740;40.620;-8.640;2022-08-19T11:36:42;6.00;;;5.50;;
65982;SDS011;52740;40.620;-8.640;2022-08-19T11:38:45;5.93;;;5.40;;
65982;SDS011;52740;40.620;-8.640;2022-08-19T11:42:59;5.35;;;4.95;;
65982;SDS011;52740;40.620;-8.640;2022-08-19T11:45:00;6.28;;;5.63;;
65982;SDS011;52740;40.620;-8.640;2022-08-19T11:47:00;5.38;;;4.88;;
65982;SDS011;52740;40.620;-8.640;2022-08-19T11:49:02;5.38;;;4.82;;
65982;SDS011;52740;40.620;-8.640;2022-08-19T11:51:08;5.07;;;4.57;;
65982;SDS011;52740;40.620;-8.640;2022-08-19T11:53:11;4.90;;;4.60;;
65982;SDS011;52740;40.620;-8.640;2022-08-19T11:55:13;4.90;;;4.70;;
65982;SDS011;52740;40.620;-8.640;2022-08-19T11:57:14;5.07;;;4.57;;
65982;SDS011;52740;40.620;-8.640;2022-08-19T11:59:16;7.18;;;3.85;;
65982;SDS011;52740;40.620;-8.640;2022-08-19T12:01:18;4.82;;;4.43;;
65982;SDS011;52740;40.620;-8.640;2022-08-19T12:05:22;4.20;;;4.00;;
65982;SDS011;52740;40.620;-8.640;2022-08-19T12:07:22;4.68;;;4.38;;
65982;SDS011;52740;40.620;-8.640;2022-08-19T12:09:24;4.53;;;4.22;;
65982;SDS011;52740;40.620;-8.640;2022-08-19T12:11:26;9.32;;;5.20;;
65982;SDS011;52740;40.620;-8.640;2022-08-19T12:13:27;6.70;;;4.47;;
65982;SDS011;52740;40.620;-8.640;2022-08-19T12:15:29;4.53;;;4.22;;
65982;SDS011;52740;40.620;-8.640;2022-08-19T12:17:29;5.05;;;4.78;;